Friday, July 20, 2018, 8:19 PM EDT
Back to Local

KPTW, Pottstown Limerick Airport

Location: Royersford, PA, United States Lat: 40.233
Local Time: 8:19 PM EDT ( 0:19 GMT) Lon: -75.55
Time Zone: US/Eastern Elev: 291 ft

Show me the last for .
Show Decoded

2018-07-20 19:54 METAR KPTW 202354Z AUTO VRB06KT 10SM CLR 24/16 A3009 RMK AO2 SLP185 T02440156
                 10283 20244 55003 =
2018-07-20 18:54 METAR KPTW 202254Z AUTO VRB03KT 10SM FEW065 26/14 A3008 RMK AO2 SLP181 T02610139
                 =
2018-07-20 17:54 METAR KPTW 202154Z AUTO 10005KT 9SM SCT065 27/14 A3009 RMK AO2 SLP184 T02720144
                 =
2018-07-20 16:54 METAR KPTW 202054Z AUTO 10005KT 9SM BKN065 28/14 A3010 RMK AO2 SLP187 T02780144
                 56015 =
2018-07-20 15:54 METAR KPTW 201954Z AUTO VRB03KT 9SM BKN065 27/14 A3011 RMK AO2 SLP193 T02670139
                 =
2018-07-20 14:54 METAR KPTW 201854Z AUTO VRB04KT 10SM BKN060 27/14 A3013 RMK AO2 SLP198 T02720139
                 =
2018-07-20 13:54 METAR KPTW 201754Z AUTO VRB06KT 9SM BKN055 27/14 A3014 RMK AO2 SLP203 T02720144
                 10272 20189 58010 =
2018-07-20 12:54 METAR KPTW 201654Z AUTO VRB05KT 9SM BKN050 26/16 A3016 RMK AO2 SLP208 T02560156
                 =
2018-07-20 11:54 METAR KPTW 201554Z AUTO 17006KT 10SM SCT049 26/14 A3017 RMK AO2 SLP212 T02560144
                 =
2018-07-20 10:54 METAR KPTW 201454Z AUTO 00000KT 9SM CLR 26/16 A3017 RMK AO2 SLP213 T02560156
                 50000 =
2018-07-20 09:54 METAR KPTW 201354Z AUTO 23005KT 9SM CLR 23/16 A3018 RMK AO2 SLP216 T02330161 =
2018-07-20 08:54 METAR KPTW 201254Z AUTO 04003KT 8SM CLR 22/19 A3018 RMK AO2 SLP215 T02170189 =
2018-07-20 07:54 METAR KPTW 201154Z AUTO 04003KT 8SM CLR 19/17 A3017 RMK AO2 SLP213 T01890172
                 10189 20150 53007 =
2018-07-20 06:54 METAR KPTW 201054Z AUTO 00000KT 7SM CLR 17/16 A3017 RMK AO2 SLP211 T01670161 =
2018-07-20 05:54 METAR KPTW 200954Z AUTO 07003KT 8SM CLR 15/15 A3016 RMK AO2 SLP208 T01500150 =
2018-07-20 04:54 METAR KPTW 200854Z AUTO 07003KT 9SM CLR 16/15 A3015 RMK AO2 SLP206 T01560150
                 55000 =
2018-07-20 03:54 METAR KPTW 200754Z AUTO 00000KT 10SM CLR 15/15 A3015 RMK AO2 SLP204 T01500150 =
2018-07-20 02:54 METAR KPTW 200654Z AUTO 00000KT 10SM CLR 16/15 A3015 RMK AO2 SLP204 T01560150 =
2018-07-20 01:54 METAR KPTW 200554Z AUTO 00000KT 10SM CLR 16/15 A3015 RMK AO2 SLP207 T01610150
                 10244 20156 51007 =
2018-07-20 00:54 METAR KPTW 200454Z AUTO 00000KT 10SM CLR 17/14 A3015 RMK AO2 SLP206 T01670144
                 402720122 =
2018-07-19 23:54 METAR KPTW 200354Z AUTO 00000KT 10SM CLR 17/13 A3015 RMK AO2 SLP205 T01670133 =
2018-07-19 22:54 METAR KPTW 200254Z AUTO 00000KT 10SM CLR 18/13 A3013 RMK AO2 SLP199 T01830128
                 51016 =
2018-07-19 21:54 METAR KPTW 200154Z AUTO 00000KT 10SM CLR 17/13 A3012 RMK AO2 SLP195 T01720133 =
2018-07-19 20:54 METAR KPTW 200054Z AUTO 00000KT 7SM CLR 19/13 A3010 RMK AO2 SLP189 T01940133 =

Support USWX by starting your Amazon purchase here.